sensor_id;sensor_type;location;lat;lon;timestamp;P1;durP1;ratioP1;P2;durP2;ratioP2
22622;SDS011;11478;51.094;7.030;2024-02-21T00:01:24;26.00;;;9.80;;
22622;SDS011;11478;51.094;7.030;2024-02-21T00:03:51;27.90;;;8.65;;
22622;SDS011;11478;51.094;7.030;2024-02-21T00:06:17;19.75;;;8.07;;
22622;SDS011;11478;51.094;7.030;2024-02-21T00:08:43;20.38;;;8.07;;
22622;SDS011;11478;51.094;7.030;2024-02-21T00:11:09;23.90;;;7.88;;
22622;SDS011;11478;51.094;7.030;2024-02-21T00:13:37;22.63;;;8.45;;
22622;SDS011;11478;51.094;7.030;2024-02-21T00:16:03;23.05;;;8.10;;
22622;SDS011;11478;51.094;7.030;2024-02-21T00:18:29;24.05;;;8.25;;
22622;SDS011;11478;51.094;7.030;2024-02-21T00:20:57;20.42;;;7.95;;
22622;SDS011;11478;51.094;7.030;2024-02-21T00:23:23;20.25;;;7.68;;
22622;SDS011;11478;51.094;7.030;2024-02-21T00:25:48;22.98;;;7.95;;
22622;SDS011;11478;51.094;7.030;2024-02-21T00:30:44;20.70;;;6.22;;
22622;SDS011;11478;51.094;7.030;2024-02-21T00:33:11;21.05;;;7.32;;
22622;SDS011;11478;51.094;7.030;2024-02-21T00:35:37;17.40;;;7.20;;
22622;SDS011;11478;51.094;7.030;2024-02-21T00:38:03;23.17;;;7.70;;
22622;SDS011;11478;51.094;7.030;2024-02-21T00:40:29;21.80;;;7.78;;
22622;SDS011;11478;51.094;7.030;2024-02-21T00:42:56;18.98;;;7.20;;
22622;SDS011;11478;51.094;7.030;2024-02-21T00:45:22;21.60;;;7.45;;
22622;SDS011;11478;51.094;7.030;2024-02-21T00:47:48;22.17;;;7.32;;
22622;SDS011;11478;51.094;7.030;2024-02-21T00:50:14;24.70;;;8.38;;
22622;SDS011;11478;51.094;7.030;2024-02-21T00:55:25;22.67;;;7.30;;
22622;SDS011;11478;51.094;7.030;2024-02-21T00:57:51;17.00;;;6.47;;
22622;SDS011;11478;51.094;7.030;2024-02-21T01:00:17;16.88;;;7.20;;
22622;SDS011;11478;51.094;7.030;2024-02-21T01:02:43;21.33;;;7.38;;
22622;SDS011;11478;51.094;7.030;2024-02-21T01:05:09;21.55;;;7.65;;
22622;SDS011;11478;51.094;7.030;2024-02-21T01:07:35;18.50;;;7.38;;
22622;SDS011;11478;51.094;7.030;2024-02-21T01:10:01;17.80;;;7.25;;
22622;SDS011;11478;51.094;7.030;2024-02-21T01:12:27;22.95;;;7.80;;
22622;SDS011;11478;51.094;7.030;2024-02-21T01:14:53;25.35;;;8.00;;
22622;SDS011;11478;51.094;7.030;2024-02-21T01:17:19;26.88;;;8.82;;
22622;SDS011;11478;51.094;7.030;2024-02-21T01:19:46;21.23;;;7.65;;
22622;SDS011;11478;51.094;7.030;2024-02-21T01:22:12;19.95;;;7.28;;
22622;SDS011;11478;51.094;7.030;2024-02-21T01:24:38;19.98;;;7.30;;
22622;SDS011;11478;51.094;7.030;2024-02-21T01:27:10;27.17;;;7.70;;
22622;SDS011;11478;51.094;7.030;2024-02-21T01:29:36;19.00;;;8.30;;
22622;SDS011;11478;51.094;7.030;2024-02-21T01:32:01;24.15;;;7.60;;
22622;SDS011;11478;51.094;7.030;2024-02-21T01:34:27;22.88;;;7.63;;
22622;SDS011;11478;51.094;7.030;2024-02-21T01:36:53;20.15;;;7.57;;
22622;SDS011;11478;51.094;7.030;2024-02-21T01:39:19;20.20;;;7.20;;
22622;SDS011;11478;51.094;7.030;2024-02-21T01:41:45;24.30;;;9.00;;
22622;SDS011;11478;51.094;7.030;2024-02-21T01:44:11;22.20;;;7.38;;
22622;SDS011;11478;51.094;7.030;2024-02-21T01:46:57;23.65;;;7.57;;
22622;SDS011;11478;51.094;7.030;2024-02-21T01:49:23;23.00;;;8.55;;
22622;SDS011;11478;51.094;7.030;2024-02-21T01:51:54;23.42;;;8.48;;
22622;SDS011;11478;51.094;7.030;2024-02-21T01:54:20;33.40;;;8.63;;
22622;SDS011;11478;51.094;7.030;2024-02-21T01:56:50;27.75;;;7.60;;
22622;SDS011;11478;51.094;7.030;2024-02-21T01:59:16;20.70;;;7.18;;
22622;SDS011;11478;51.094;7.030;2024-02-21T02:01:46;19.75;;;7.32;;
22622;SDS011;11478;51.094;7.030;2024-02-21T02:04:12;23.35;;;9.85;;
22622;SDS011;11478;51.094;7.030;2024-02-21T02:06:39;27.08;;;9.45;;
22622;SDS011;11478;51.094;7.030;2024-02-21T02:09:06;20.80;;;8.02;;
22622;SDS011;11478;51.094;7.030;2024-02-21T02:11:33;21.60;;;7.85;;
22622;SDS011;11478;51.094;7.030;2024-02-21T02:14:00;23.02;;;8.13;;
22622;SDS011;11478;51.094;7.030;2024-02-21T02:16:26;21.90;;;8.30;;
22622;SDS011;11478;51.094;7.030;2024-02-21T02:18:52;26.60;;;8.30;;
22622;SDS011;11478;51.094;7.030;2024-02-21T02:21:29;24.35;;;8.48;;
22622;SDS011;11478;51.094;7.030;2024-02-21T02:23:59;29.25;;;8.60;;
22622;SDS011;11478;51.094;7.030;2024-02-21T02:26:25;21.60;;;8.27;;
22622;SDS011;11478;51.094;7.030;2024-02-21T02:28:53;24.17;;;8.82;;
22622;SDS011;11478;51.094;7.030;2024-02-21T02:31:19;22.42;;;8.52;;
22622;SDS011;11478;51.094;7.030;2024-02-21T02:33:45;20.38;;;7.82;;
22622;SDS011;11478;51.094;7.030;2024-02-21T02:36:11;22.90;;;7.70;;
22622;SDS011;11478;51.094;7.030;2024-02-21T02:38:39;20.73;;;7.63;;
22622;SDS011;11478;51.094;7.030;2024-02-21T02:41:05;23.88;;;8.63;;
22622;SDS011;11478;51.094;7.030;2024-02-21T02:43:32;18.90;;;7.75;;
22622;SDS011;11478;51.094;7.030;2024-02-21T02:45:58;22.23;;;7.28;;
22622;SDS011;11478;51.094;7.030;2024-02-21T02:48:34;23.45;;;7.75;;
22622;SDS011;11478;51.094;7.030;2024-02-21T02:51:00;24.20;;;7.32;;
22622;SDS011;11478;51.094;7.030;2024-02-21T02:53:26;28.20;;;8.30;;
22622;SDS011;11478;51.094;7.030;2024-02-21T02:55:52;27.63;;;8.13;;
22622;SDS011;11478;51.094;7.030;2024-02-21T02:58:19;29.05;;;9.30;;
22622;SDS011;11478;51.094;7.030;2024-02-21T03:04:28;23.75;;;8.18;;
22622;SDS011;11478;51.094;7.030;2024-02-21T03:06:54;22.73;;;7.55;;
22622;SDS011;11478;51.094;7.030;2024-02-21T03:09:20;25.08;;;8.13;;
22622;SDS011;11478;51.094;7.030;2024-02-21T03:11:47;23.80;;;8.63;;
22622;SDS011;11478;51.094;7.030;2024-02-21T03:14:13;23.40;;;7.78;;
22622;SDS011;11478;51.094;7.030;2024-02-21T03:19:24;21.95;;;7.88;;
22622;SDS011;11478;51.094;7.030;2024-02-21T03:21:56;21.90;;;7.55;;
22622;SDS011;11478;51.094;7.030;2024-02-21T03:26:54;18.45;;;7.15;;
22622;SDS011;11478;51.094;7.030;2024-02-21T03:29:21;16.80;;;7.28;;
22622;SDS011;11478;51.094;7.030;2024-02-21T03:31:46;22.58;;;7.38;;
22622;SDS011;11478;51.094;7.030;2024-02-21T03:34:13;22.83;;;7.68;;
22622;SDS011;11478;51.094;7.030;2024-02-21T03:36:39;18.27;;;7.32;;
22622;SDS011;11478;51.094;7.030;2024-02-21T03:39:10;20.35;;;6.82;;
22622;SDS011;11478;51.094;7.030;2024-02-21T03:41:36;22.38;;;7.53;;
22622;SDS011;11478;51.094;7.030;2024-02-21T03:44:03;21.05;;;6.88;;
22622;SDS011;11478;51.094;7.030;2024-02-21T03:46:30;23.27;;;7.70;;
22622;SDS011;11478;51.094;7.030;2024-02-21T03:48:57;20.42;;;6.63;;
22622;SDS011;11478;51.094;7.030;2024-02-21T03:51:22;17.55;;;6.40;;
22622;SDS011;11478;51.094;7.030;2024-02-21T03:53:51;20.95;;;6.80;;
22622;SDS011;11478;51.094;7.030;2024-02-21T03:56:17;21.55;;;7.85;;
22622;SDS011;11478;51.094;7.030;2024-02-21T03:58:43;18.42;;;6.65;;
22622;SDS011;11478;51.094;7.030;2024-02-21T04:01:09;27.08;;;7.68;;
22622;SDS011;11478;51.094;7.030;2024-02-21T04:03:35;23.10;;;7.00;;
22622;SDS011;11478;51.094;7.030;2024-02-21T04:06:01;23.67;;;6.78;;
22622;SDS011;11478;51.094;7.030;2024-02-21T04:08:30;18.65;;;6.32;;
22622;SDS011;11478;51.094;7.030;2024-02-21T04:10:56;18.13;;;6.93;;
22622;SDS011;11478;51.094;7.030;2024-02-21T04:13:22;19.05;;;6.75;;
22622;SDS011;11478;51.094;7.030;2024-02-21T04:15:48;21.55;;;6.68;;
22622;SDS011;11478;51.094;7.030;2024-02-21T04:18:15;19.80;;;6.75;;
22622;SDS011;11478;51.094;7.030;2024-02-21T04:20:41;18.20;;;6.50;;
22622;SDS011;11478;51.094;7.030;2024-02-21T04:23:13;19.75;;;6.63;;
22622;SDS011;11478;51.094;7.030;2024-02-21T04:25:39;24.73;;;6.65;;
22622;SDS011;11478;51.094;7.030;2024-02-21T04:28:05;21.50;;;6.57;;
22622;SDS011;11478;51.094;7.030;2024-02-21T04:30:31;14.00;;;5.90;;
22622;SDS011;11478;51.094;7.030;2024-02-21T04:32:57;20.42;;;6.43;;
22622;SDS011;11478;51.094;7.030;2024-02-21T04:35:23;16.98;;;6.57;;
22622;SDS011;11478;51.094;7.030;2024-02-21T04:37:51;16.75;;;6.60;;
22622;SDS011;11478;51.094;7.030;2024-02-21T04:40:17;18.85;;;6.82;;
22622;SDS011;11478;51.094;7.030;2024-02-21T04:42:46;20.42;;;6.65;;
22622;SDS011;11478;51.094;7.030;2024-02-21T04:45:12;20.50;;;6.53;;
22622;SDS011;11478;51.094;7.030;2024-02-21T04:47:40;20.23;;;6.82;;
22622;SDS011;11478;51.094;7.030;2024-02-21T04:50:05;20.83;;;6.55;;
22622;SDS011;11478;51.094;7.030;2024-02-21T04:52:33;19.30;;;6.78;;
22622;SDS011;11478;51.094;7.030;2024-02-21T04:54:58;19.35;;;6.43;;
22622;SDS011;11478;51.094;7.030;2024-02-21T04:57:25;16.00;;;5.50;;
22622;SDS011;11478;51.094;7.030;2024-02-21T04:59:51;19.17;;;6.22;;
22622;SDS011;11478;51.094;7.030;2024-02-21T05:02:17;21.83;;;6.50;;
22622;SDS011;11478;51.094;7.030;2024-02-21T05:04:45;16.65;;;6.15;;
22622;SDS011;11478;51.094;7.030;2024-02-21T05:07:11;16.27;;;6.25;;
22622;SDS011;11478;51.094;7.030;2024-02-21T05:09:37;21.48;;;6.63;;
22622;SDS011;11478;51.094;7.030;2024-02-21T05:12:03;15.75;;;6.03;;
22622;SDS011;11478;51.094;7.030;2024-02-21T05:14:29;19.85;;;6.05;;
22622;SDS011;11478;51.094;7.030;2024-02-21T05:16:56;14.95;;;5.40;;
22622;SDS011;11478;51.094;7.030;2024-02-21T05:19:22;15.70;;;6.22;;
22622;SDS011;11478;51.094;7.030;2024-02-21T05:21:48;27.85;;;7.05;;
22622;SDS011;11478;51.094;7.030;2024-02-21T05:24:15;16.88;;;6.38;;
22622;SDS011;11478;51.094;7.030;2024-02-21T05:26:41;17.10;;;5.55;;
22622;SDS011;11478;51.094;7.030;2024-02-21T05:29:09;19.30;;;5.70;;
22622;SDS011;11478;51.094;7.030;2024-02-21T05:34:20;17.27;;;6.18;;
22622;SDS011;11478;51.094;7.030;2024-02-21T05:36:47;19.92;;;5.72;;
22622;SDS011;11478;51.094;7.030;2024-02-21T05:39:14;18.45;;;6.53;;
22622;SDS011;11478;51.094;7.030;2024-02-21T05:41:44;18.60;;;6.40;;
22622;SDS011;11478;51.094;7.030;2024-02-21T05:44:10;16.52;;;5.93;;
22622;SDS011;11478;51.094;7.030;2024-02-21T05:46:37;20.25;;;5.60;;
22622;SDS011;11478;51.094;7.030;2024-02-21T05:49:07;15.30;;;5.70;;
22622;SDS011;11478;51.094;7.030;2024-02-21T05:51:33;16.83;;;6.13;;
22622;SDS011;11478;51.094;7.030;2024-02-21T05:54:00;19.33;;;6.15;;
22622;SDS011;11478;51.094;7.030;2024-02-21T05:56:26;16.92;;;6.50;;
22622;SDS011;11478;51.094;7.030;2024-02-21T05:58:52;21.33;;;5.85;;
22622;SDS011;11478;51.094;7.030;2024-02-21T06:01:18;21.27;;;5.93;;
22622;SDS011;11478;51.094;7.030;2024-02-21T06:03:43;18.60;;;6.55;;
22622;SDS011;11478;51.094;7.030;2024-02-21T06:06:10;17.88;;;6.22;;
22622;SDS011;11478;51.094;7.030;2024-02-21T06:08:44;19.77;;;7.45;;
22622;SDS011;11478;51.094;7.030;2024-02-21T06:11:10;17.27;;;6.50;;
22622;SDS011;11478;51.094;7.030;2024-02-21T06:13:38;21.77;;;6.93;;
22622;SDS011;11478;51.094;7.030;2024-02-21T06:16:05;17.38;;;6.68;;
22622;SDS011;11478;51.094;7.030;2024-02-21T06:21:02;16.15;;;6.45;;
22622;SDS011;11478;51.094;7.030;2024-02-21T06:25:58;15.65;;;6.00;;
22622;SDS011;11478;51.094;7.030;2024-02-21T06:28:24;14.30;;;5.90;;
22622;SDS011;11478;51.094;7.030;2024-02-21T06:30:49;19.55;;;5.80;;
22622;SDS011;11478;51.094;7.030;2024-02-21T06:33:15;16.08;;;6.18;;
22622;SDS011;11478;51.094;7.030;2024-02-21T06:35:41;17.65;;;6.63;;
22622;SDS011;11478;51.094;7.030;2024-02-21T06:38:08;17.05;;;7.90;;
22622;SDS011;11478;51.094;7.030;2024-02-21T06:40:34;17.65;;;7.28;;
22622;SDS011;11478;51.094;7.030;2024-02-21T06:43:05;22.15;;;7.80;;
22622;SDS011;11478;51.094;7.030;2024-02-21T06:45:31;18.75;;;8.15;;
22622;SDS011;11478;51.094;7.030;2024-02-21T06:47:57;19.50;;;7.70;;
22622;SDS011;11478;51.094;7.030;2024-02-21T06:50:23;17.48;;;7.18;;
22622;SDS011;11478;51.094;7.030;2024-02-21T06:52:55;17.38;;;7.80;;
22622;SDS011;11478;51.094;7.030;2024-02-21T06:55:21;16.90;;;7.32;;
22622;SDS011;11478;51.094;7.030;2024-02-21T06:57:47;14.80;;;7.10;;
22622;SDS011;11478;51.094;7.030;2024-02-21T07:02:59;14.07;;;6.57;;
22622;SDS011;11478;51.094;7.030;2024-02-21T07:05:25;13.18;;;5.63;;
22622;SDS011;11478;51.094;7.030;2024-02-21T07:07:51;12.88;;;6.80;;
22622;SDS011;11478;51.094;7.030;2024-02-21T07:10:17;15.10;;;6.60;;
22622;SDS011;11478;51.094;7.030;2024-02-21T07:12:43;17.75;;;7.72;;
22622;SDS011;11478;51.094;7.030;2024-02-21T07:15:09;13.40;;;6.45;;
22622;SDS011;11478;51.094;7.030;2024-02-21T07:17:35;16.50;;;6.57;;
22622;SDS011;11478;51.094;7.030;2024-02-21T07:20:01;14.27;;;6.28;;
22622;SDS011;11478;51.094;7.030;2024-02-21T07:22:28;17.20;;;5.78;;
22622;SDS011;11478;51.094;7.030;2024-02-21T07:24:58;13.23;;;5.65;;
22622;SDS011;11478;51.094;7.030;2024-02-21T07:27:24;17.52;;;6.30;;
22622;SDS011;11478;51.094;7.030;2024-02-21T07:32:23;14.77;;;5.60;;
22622;SDS011;11478;51.094;7.030;2024-02-21T07:34:48;10.93;;;5.75;;
22622;SDS011;11478;51.094;7.030;2024-02-21T07:37:16;11.75;;;6.82;;
22622;SDS011;11478;51.094;7.030;2024-02-21T07:39:42;17.33;;;6.07;;
22622;SDS011;11478;51.094;7.030;2024-02-21T07:42:08;15.38;;;5.63;;
22622;SDS011;11478;51.094;7.030;2024-02-21T07:44:34;23.67;;;9.80;;
22622;SDS011;11478;51.094;7.030;2024-02-21T07:47:02;14.55;;;8.07;;
22622;SDS011;11478;51.094;7.030;2024-02-21T07:49:27;21.35;;;8.07;;
22622;SDS011;11478;51.094;7.030;2024-02-21T07:51:53;20.30;;;8.05;;
22622;SDS011;11478;51.094;7.030;2024-02-21T07:54:20;20.10;;;8.07;;
22622;SDS011;11478;51.094;7.030;2024-02-21T07:56:46;22.60;;;9.32;;
22622;SDS011;11478;51.094;7.030;2024-02-21T07:59:12;19.05;;;9.35;;
22622;SDS011;11478;51.094;7.030;2024-02-21T08:01:39;21.40;;;9.30;;
22622;SDS011;11478;51.094;7.030;2024-02-21T08:04:11;23.95;;;9.15;;
22622;SDS011;11478;51.094;7.030;2024-02-21T08:06:37;18.33;;;8.27;;
22622;SDS011;11478;51.094;7.030;2024-02-21T08:09:05;19.25;;;8.07;;
22622;SDS011;11478;51.094;7.030;2024-02-21T08:11:31;16.73;;;6.82;;
22622;SDS011;11478;51.094;7.030;2024-02-21T08:13:57;16.73;;;6.72;;
22622;SDS011;11478;51.094;7.030;2024-02-21T08:16:27;19.98;;;8.10;;
22622;SDS011;11478;51.094;7.030;2024-02-21T08:18:56;14.52;;;6.80;;
22622;SDS011;11478;51.094;7.030;2024-02-21T08:21:23;19.33;;;6.63;;
22622;SDS011;11478;51.094;7.030;2024-02-21T08:24:03;18.08;;;8.18;;
22622;SDS011;11478;51.094;7.030;2024-02-21T08:26:29;21.23;;;7.05;;
22622;SDS011;11478;51.094;7.030;2024-02-21T08:28:56;17.67;;;6.30;;
22622;SDS011;11478;51.094;7.030;2024-02-21T08:31:26;19.30;;;9.98;;
22622;SDS011;11478;51.094;7.030;2024-02-21T08:34:01;18.50;;;6.40;;
22622;SDS011;11478;51.094;7.030;2024-02-21T08:36:33;14.98;;;6.40;;
22622;SDS011;11478;51.094;7.030;2024-02-21T08:39:00;16.98;;;6.10;;
22622;SDS011;11478;51.094;7.030;2024-02-21T08:41:30;11.98;;;5.15;;
22622;SDS011;11478;51.094;7.030;2024-02-21T08:43:59;14.00;;;5.43;;
22622;SDS011;11478;51.094;7.030;2024-02-21T08:46:26;14.82;;;5.90;;
22622;SDS011;11478;51.094;7.030;2024-02-21T08:48:53;14.40;;;5.68;;
22622;SDS011;11478;51.094;7.030;2024-02-21T08:51:19;14.80;;;5.60;;
22622;SDS011;11478;51.094;7.030;2024-02-21T08:53:46;14.85;;;5.45;;
22622;SDS011;11478;51.094;7.030;2024-02-21T08:56:13;12.35;;;5.50;;
22622;SDS011;11478;51.094;7.030;2024-02-21T08:58:42;15.70;;;5.45;;
22622;SDS011;11478;51.094;7.030;2024-02-21T09:01:10;11.73;;;5.05;;
22622;SDS011;11478;51.094;7.030;2024-02-21T09:03:37;13.10;;;5.05;;
22622;SDS011;11478;51.094;7.030;2024-02-21T09:06:06;14.38;;;5.60;;
22622;SDS011;11478;51.094;7.030;2024-02-21T09:08:33;13.25;;;5.63;;
22622;SDS011;11478;51.094;7.030;2024-02-21T09:11:05;12.27;;;5.05;;
22622;SDS011;11478;51.094;7.030;2024-02-21T09:13:31;14.65;;;4.90;;
22622;SDS011;11478;51.094;7.030;2024-02-21T09:15:57;18.15;;;5.70;;
22622;SDS011;11478;51.094;7.030;2024-02-21T09:18:23;16.30;;;5.45;;
22622;SDS011;11478;51.094;7.030;2024-02-21T09:20:50;19.80;;;5.10;;
22622;SDS011;11478;51.094;7.030;2024-02-21T09:23:17;14.73;;;5.55;;
22622;SDS011;11478;51.094;7.030;2024-02-21T09:25:45;18.48;;;5.90;;
22622;SDS011;11478;51.094;7.030;2024-02-21T09:28:11;12.70;;;4.85;;
22622;SDS011;11478;51.094;7.030;2024-02-21T09:30:39;22.00;;;6.28;;
22622;SDS011;11478;51.094;7.030;2024-02-21T09:33:08;17.73;;;5.60;;
22622;SDS011;11478;51.094;7.030;2024-02-21T09:35:33;14.75;;;5.68;;
22622;SDS011;11478;51.094;7.030;2024-02-21T09:37:59;17.00;;;5.78;;
22622;SDS011;11478;51.094;7.030;2024-02-21T09:40:30;14.13;;;6.28;;
22622;SDS011;11478;51.094;7.030;2024-02-21T09:43:06;15.77;;;5.60;;
22622;SDS011;11478;51.094;7.030;2024-02-21T09:45:32;17.83;;;6.40;;
22622;SDS011;11478;51.094;7.030;2024-02-21T09:51:02;18.50;;;6.35;;
22622;SDS011;11478;51.094;7.030;2024-02-21T09:53:29;19.58;;;8.18;;
22622;SDS011;11478;51.094;7.030;2024-02-21T09:55:57;21.27;;;7.25;;
22622;SDS011;11478;51.094;7.030;2024-02-21T09:58:25;22.70;;;12.15;;
22622;SDS011;11478;51.094;7.030;2024-02-21T10:00:53;19.25;;;9.02;;
22622;SDS011;11478;51.094;7.030;2024-02-21T10:03:19;17.45;;;6.82;;
22622;SDS011;11478;51.094;7.030;2024-02-21T10:05:48;15.45;;;6.45;;
22622;SDS011;11478;51.094;7.030;2024-02-21T10:08:17;14.55;;;6.13;;
22622;SDS011;11478;51.094;7.030;2024-02-21T10:10:45;20.98;;;8.38;;
22622;SDS011;11478;51.094;7.030;2024-02-21T10:13:25;18.55;;;6.70;;
22622;SDS011;11478;51.094;7.030;2024-02-21T10:16:05;16.20;;;6.55;;
22622;SDS011;11478;51.094;7.030;2024-02-21T10:18:35;15.20;;;5.85;;
22622;SDS011;11478;51.094;7.030;2024-02-21T10:23:27;21.02;;;8.75;;
22622;SDS011;11478;51.094;7.030;2024-02-21T10:25:53;16.60;;;6.20;;
22622;SDS011;11478;51.094;7.030;2024-02-21T10:28:19;16.67;;;5.00;;
22622;SDS011;11478;51.094;7.030;2024-02-21T10:30:51;12.30;;;4.35;;
22622;SDS011;11478;51.094;7.030;2024-02-21T10:33:18;15.35;;;4.57;;
22622;SDS011;11478;51.094;7.030;2024-02-21T10:35:49;16.80;;;7.22;;
22622;SDS011;11478;51.094;7.030;2024-02-21T10:38:24;15.52;;;5.97;;
22622;SDS011;11478;51.094;7.030;2024-02-21T10:40:53;13.32;;;4.97;;
22622;SDS011;11478;51.094;7.030;2024-02-21T10:43:22;12.82;;;4.45;;
22622;SDS011;11478;51.094;7.030;2024-02-21T10:45:49;12.35;;;4.35;;
22622;SDS011;11478;51.094;7.030;2024-02-21T10:48:17;13.43;;;4.32;;
22622;SDS011;11478;51.094;7.030;2024-02-21T10:51:10;13.35;;;3.88;;
22622;SDS011;11478;51.094;7.030;2024-02-21T10:56:33;15.18;;;4.28;;
22622;SDS011;11478;51.094;7.030;2024-02-21T10:59:02;13.73;;;4.30;;
22622;SDS011;11478;51.094;7.030;2024-02-21T11:01:32;11.57;;;3.78;;
22622;SDS011;11478;51.094;7.030;2024-02-21T11:04:10;15.05;;;4.80;;
22622;SDS011;11478;51.094;7.030;2024-02-21T11:06:38;12.55;;;4.32;;
22622;SDS011;11478;51.094;7.030;2024-02-21T11:09:06;12.55;;;3.65;;
22622;SDS011;11478;51.094;7.030;2024-02-21T11:11:51;17.13;;;4.82;;
22622;SDS011;11478;51.094;7.030;2024-02-21T11:14:51;11.73;;;4.00;;
22622;SDS011;11478;51.094;7.030;2024-02-21T11:17:19;8.27;;;3.42;;
22622;SDS011;11478;51.094;7.030;2024-02-21T11:19:52;10.50;;;4.28;;
22622;SDS011;11478;51.094;7.030;2024-02-21T11:22:19;13.52;;;3.65;;
22622;SDS011;11478;51.094;7.030;2024-02-21T11:24:48;12.13;;;3.78;;
22622;SDS011;11478;51.094;7.030;2024-02-21T11:27:15;12.10;;;4.13;;
22622;SDS011;11478;51.094;7.030;2024-02-21T11:29:49;10.57;;;3.92;;
22622;SDS011;11478;51.094;7.030;2024-02-21T11:32:20;9.13;;;3.55;;
22622;SDS011;11478;51.094;7.030;2024-02-21T11:34:54;11.07;;;3.85;;
22622;SDS011;11478;51.094;7.030;2024-02-21T11:37:34;9.88;;;3.80;;
22622;SDS011;11478;51.094;7.030;2024-02-21T11:40:08;11.93;;;4.03;;
22622;SDS011;11478;51.094;7.030;2024-02-21T11:42:35;10.77;;;3.65;;
22622;SDS011;11478;51.094;7.030;2024-02-21T11:45:01;9.05;;;3.17;;
22622;SDS011;11478;51.094;7.030;2024-02-21T11:47:28;10.52;;;3.25;;
22622;SDS011;11478;51.094;7.030;2024-02-21T11:49:54;16.35;;;4.57;;
22622;SDS011;11478;51.094;7.030;2024-02-21T11:52:24;13.50;;;3.78;;
22622;SDS011;11478;51.094;7.030;2024-02-21T11:54:52;13.40;;;3.30;;
22622;SDS011;11478;51.094;7.030;2024-02-21T11:57:18;12.98;;;3.10;;
22622;SDS011;11478;51.094;7.030;2024-02-21T11:59:47;11.48;;;3.40;;
22622;SDS011;11478;51.094;7.030;2024-02-21T12:02:16;12.77;;;3.72;;
22622;SDS011;11478;51.094;7.030;2024-02-21T12:04:43;10.98;;;3.65;;
22622;SDS011;11478;51.094;7.030;2024-02-21T12:07:14;11.65;;;3.08;;
22622;SDS011;11478;51.094;7.030;2024-02-21T12:09:41;11.15;;;3.13;;
22622;SDS011;11478;51.094;7.030;2024-02-21T12:12:07;14.73;;;3.70;;
22622;SDS011;11478;51.094;7.030;2024-02-21T12:14:34;12.13;;;2.97;;
22622;SDS011;11478;51.094;7.030;2024-02-21T12:17:01;12.60;;;3.20;;
22622;SDS011;11478;51.094;7.030;2024-02-21T12:19:32;8.30;;;2.85;;
22622;SDS011;11478;51.094;7.030;2024-02-21T12:22:00;12.45;;;3.30;;
22622;SDS011;11478;51.094;7.030;2024-02-21T12:24:27;13.35;;;3.33;;
22622;SDS011;11478;51.094;7.030;2024-02-21T12:26:55;10.10;;;3.40;;
22622;SDS011;11478;51.094;7.030;2024-02-21T12:29:25;11.90;;;3.45;;
22622;SDS011;11478;51.094;7.030;2024-02-21T12:31:51;11.35;;;2.90;;
22622;SDS011;11478;51.094;7.030;2024-02-21T12:34:17;9.55;;;2.90;;
22622;SDS011;11478;51.094;7.030;2024-02-21T12:36:52;11.13;;;3.03;;
22622;SDS011;11478;51.094;7.030;2024-02-21T12:39:21;9.57;;;2.92;;
22622;SDS011;11478;51.094;7.030;2024-02-21T12:41:47;9.88;;;3.50;;
22622;SDS011;11478;51.094;7.030;2024-02-21T12:44:13;9.02;;;2.95;;
22622;SDS011;11478;51.094;7.030;2024-02-21T12:46:39;9.68;;;3.10;;
22622;SDS011;11478;51.094;7.030;2024-02-21T12:49:05;11.43;;;3.10;;
22622;SDS011;11478;51.094;7.030;2024-02-21T12:51:33;12.23;;;3.20;;
22622;SDS011;11478;51.094;7.030;2024-02-21T12:53:59;12.07;;;3.45;;
22622;SDS011;11478;51.094;7.030;2024-02-21T12:56:26;11.55;;;3.20;;
22622;SDS011;11478;51.094;7.030;2024-02-21T12:58:58;8.30;;;3.17;;
22622;SDS011;11478;51.094;7.030;2024-02-21T13:01:23;13.27;;;4.25;;
22622;SDS011;11478;51.094;7.030;2024-02-21T13:03:49;9.63;;;3.03;;
22622;SDS011;11478;51.094;7.030;2024-02-21T13:06:15;9.50;;;3.35;;
22622;SDS011;11478;51.094;7.030;2024-02-21T13:08:41;8.40;;;2.97;;
22622;SDS011;11478;51.094;7.030;2024-02-21T13:11:09;8.73;;;2.65;;
22622;SDS011;11478;51.094;7.030;2024-02-21T13:13:36;9.50;;;3.10;;
22622;SDS011;11478;51.094;7.030;2024-02-21T13:16:02;12.13;;;3.33;;
22622;SDS011;11478;51.094;7.030;2024-02-21T13:18:28;11.43;;;3.00;;
22622;SDS011;11478;51.094;7.030;2024-02-21T13:20:54;11.90;;;3.20;;
22622;SDS011;11478;51.094;7.030;2024-02-21T13:23:19;7.03;;;2.78;;
22622;SDS011;11478;51.094;7.030;2024-02-21T13:25:47;8.70;;;3.15;;
22622;SDS011;11478;51.094;7.030;2024-02-21T13:28:16;6.70;;;2.78;;
22622;SDS011;11478;51.094;7.030;2024-02-21T13:30:42;10.45;;;3.20;;
22622;SDS011;11478;51.094;7.030;2024-02-21T13:33:10;9.95;;;3.00;;
22622;SDS011;11478;51.094;7.030;2024-02-21T13:35:37;8.05;;;2.65;;
22622;SDS011;11478;51.094;7.030;2024-02-21T13:38:03;10.45;;;2.90;;
22622;SDS011;11478;51.094;7.030;2024-02-21T13:40:31;10.32;;;2.97;;
22622;SDS011;11478;51.094;7.030;2024-02-21T13:42:57;8.70;;;2.85;;
22622;SDS011;11478;51.094;7.030;2024-02-21T13:45:23;7.95;;;2.67;;
22622;SDS011;11478;51.094;7.030;2024-02-21T13:47:49;9.73;;;2.53;;
22622;SDS011;11478;51.094;7.030;2024-02-21T13:50:15;7.57;;;2.70;;
22622;SDS011;11478;51.094;7.030;2024-02-21T13:52:42;11.75;;;2.55;;
22622;SDS011;11478;51.094;7.030;2024-02-21T13:55:08;8.23;;;2.67;;
22622;SDS011;11478;51.094;7.030;2024-02-21T13:57:35;7.32;;;2.75;;
22622;SDS011;11478;51.094;7.030;2024-02-21T14:00:02;9.70;;;2.72;;
22622;SDS011;11478;51.094;7.030;2024-02-21T14:02:35;9.98;;;3.38;;
22622;SDS011;11478;51.094;7.030;2024-02-21T14:05:01;11.10;;;2.70;;
22622;SDS011;11478;51.094;7.030;2024-02-21T14:07:30;7.35;;;2.45;;
22622;SDS011;11478;51.094;7.030;2024-02-21T14:10:05;10.15;;;3.13;;
22622;SDS011;11478;51.094;7.030;2024-02-21T14:12:32;9.80;;;2.75;;
22622;SDS011;11478;51.094;7.030;2024-02-21T14:14:58;7.95;;;2.63;;
22622;SDS011;11478;51.094;7.030;2024-02-21T14:17:33;10.93;;;2.90;;
22622;SDS011;11478;51.094;7.030;2024-02-21T14:19:59;9.32;;;3.00;;
22622;SDS011;11478;51.094;7.030;2024-02-21T14:22:25;8.65;;;2.63;;
22622;SDS011;11478;51.094;7.030;2024-02-21T14:24:50;7.55;;;2.58;;
22622;SDS011;11478;51.094;7.030;2024-02-21T14:27:16;7.13;;;2.78;;
22622;SDS011;11478;51.094;7.030;2024-02-21T14:29:42;8.55;;;2.45;;
22622;SDS011;11478;51.094;7.030;2024-02-21T14:32:09;7.18;;;2.60;;
22622;SDS011;11478;51.094;7.030;2024-02-21T14:34:37;10.02;;;2.95;;
22622;SDS011;11478;51.094;7.030;2024-02-21T14:37:03;6.15;;;2.55;;
22622;SDS011;11478;51.094;7.030;2024-02-21T14:39:29;7.90;;;2.60;;
22622;SDS011;11478;51.094;7.030;2024-02-21T14:41:58;8.77;;;2.80;;
22622;SDS011;11478;51.094;7.030;2024-02-21T14:44:32;11.15;;;3.28;;
22622;SDS011;11478;51.094;7.030;2024-02-21T14:47:00;9.32;;;3.08;;
22622;SDS011;11478;51.094;7.030;2024-02-21T14:49:31;6.38;;;2.70;;
22622;SDS011;11478;51.094;7.030;2024-02-21T14:51:57;9.95;;;2.88;;
22622;SDS011;11478;51.094;7.030;2024-02-21T14:57:19;10.60;;;2.97;;
22622;SDS011;11478;51.094;7.030;2024-02-21T14:59:54;6.90;;;2.70;;
22622;SDS011;11478;51.094;7.030;2024-02-21T15:02:23;9.32;;;3.58;;
22622;SDS011;11478;51.094;7.030;2024-02-21T15:04:50;7.10;;;2.65;;
22622;SDS011;11478;51.094;7.030;2024-02-21T15:07:19;8.98;;;2.72;;
22622;SDS011;11478;51.094;7.030;2024-02-21T15:09:56;7.03;;;2.67;;
22622;SDS011;11478;51.094;7.030;2024-02-21T15:12:24;6.90;;;2.45;;
22622;SDS011;11478;51.094;7.030;2024-02-21T15:14:53;8.30;;;2.50;;
22622;SDS011;11478;51.094;7.030;2024-02-21T15:17:20;6.65;;;2.70;;